createdAt,value
2023-03-29T00:02:19.682Z,102127.97
2023-03-29T00:04:47.073Z,102135.78
2023-03-29T00:07:14.296Z,102131.47
2023-03-29T00:09:42.444Z,102128.81
2023-03-29T00:12:11.558Z,102133.97
2023-03-29T00:14:38.672Z,102138.34
2023-03-29T00:17:06.334Z,102134.78
2023-03-29T00:19:36.582Z,102144.38
2023-03-29T00:22:06.001Z,102147.13
2023-03-29T00:24:33.226Z,102147.06
2023-03-29T00:27:00.950Z,102162.84
2023-03-29T00:29:28.770Z,102158.47
2023-03-29T00:31:56.091Z,102156.72
2023-03-29T00:34:24.941Z,102148.72
2023-03-29T00:36:53.065Z,102152.97
2023-03-29T00:39:20.575Z,102145.66
2023-03-29T00:41:49.708Z,102149.66
2023-03-29T00:44:56.330Z,102141.47
2023-03-29T00:47:32.835Z,102138.75
2023-03-29T00:50:06.914Z,102126.53
2023-03-29T00:52:36.260Z,102130.84
2023-03-29T00:55:10.035Z,102128.22
2023-03-29T00:57:38.854Z,102122.91
2023-03-29T01:00:10.141Z,102125.47
2023-03-29T01:02:40.146Z,102125.44
2023-03-29T01:05:14.459Z,102124.56
2023-03-29T01:07:53.685Z,102120.22
2023-03-29T01:10:31.046Z,102120.22
2023-03-29T01:13:09.318Z,102111.50
2023-03-29T01:15:40.805Z,102115.91
2023-03-29T01:18:09.132Z,102110.56
2023-03-29T01:20:57.473Z,102109.66
2023-03-29T01:23:58.332Z,102106.06
2023-03-29T01:26:44.914Z,102101.66
2023-03-29T01:29:54.157Z,102093.75
2023-03-29T01:32:34.936Z,102092.69
2023-03-29T01:35:10.139Z,102109.97
2023-03-29T01:37:43.688Z,102114.91
2023-03-29T01:40:11.193Z,102112.19
2023-03-29T01:43:15.765Z,102104.31
2023-03-29T01:45:51.408Z,102102.53
2023-03-29T01:48:30.780Z,102094.69
2023-03-29T01:51:06.974Z,102090.25
2023-03-29T01:53:57.298Z,102077.00
2023-03-29T01:56:28.590Z,102061.09
2023-03-29T01:59:04.091Z,102062.94
2023-03-29T02:01:38.391Z,102068.06
2023-03-29T02:04:13.139Z,102069.75
2023-03-29T02:06:41.670Z,102079.47
2023-03-29T02:09:09.186Z,102085.69
2023-03-29T02:11:38.951Z,102066.50
2023-03-29T02:14:06.422Z,102072.56
2023-03-29T02:16:37.552Z,102069.09
2023-03-29T02:19:07.804Z,102074.38
2023-03-29T02:21:48.240Z,102070.97
2023-03-29T02:24:20.113Z,102075.44
2023-03-29T02:26:48.356Z,102072.72
2023-03-29T02:29:16.257Z,102064.63
2023-03-29T02:31:58.616Z,102076.06
2023-03-29T02:34:41.726Z,102076.19
2023-03-29T02:37:15.600Z,102066.47
2023-03-29T02:39:42.891Z,102069.00
2023-03-29T02:42:10.922Z,102073.41
2023-03-29T02:44:41.342Z,102068.13
2023-03-29T02:47:21.283Z,102068.31
2023-03-29T02:49:48.625Z,102072.63
2023-03-29T02:52:19.119Z,102078.03
2023-03-29T02:54:48.859Z,102068.34
2023-03-29T02:57:16.047Z,102060.59
2023-03-29T02:59:44.601Z,102057.03
2023-03-29T03:02:11.829Z,102061.47
2023-03-29T03:04:39.302Z,102050.97
2023-03-29T03:07:06.527Z,102064.91
2023-03-29T03:09:34.327Z,102069.13
2023-03-29T03:12:01.846Z,102061.09
2023-03-29T03:14:29.440Z,102061.97
2023-03-29T03:16:59.033Z,102061.03
2023-03-29T03:19:26.272Z,102065.44
2023-03-29T03:21:53.420Z,102053.47
2023-03-29T03:24:22.131Z,102063.38
2023-03-29T03:26:50.005Z,102053.09
2023-03-29T03:29:19.112Z,102055.16
2023-03-29T03:31:55.629Z,102055.34
2023-03-29T03:34:42.716Z,102049.28
2023-03-29T03:37:11.975Z,102041.63
2023-03-29T03:39:39.546Z,102051.34
2023-03-29T03:42:09.014Z,102047.09
2023-03-29T03:44:42.068Z,102050.66
2023-03-29T03:47:23.619Z,102047.19
2023-03-29T03:49:51.813Z,102049.84
2023-03-29T03:52:21.188Z,102048.13
2023-03-29T03:54:50.110Z,102046.34
2023-03-29T03:57:37.265Z,102054.19
2023-03-29T04:00:10.214Z,102049.00
2023-03-29T04:02:39.987Z,102044.75
2023-03-29T04:05:08.637Z,102047.44
2023-03-29T04:07:38.714Z,102035.25
2023-03-29T04:10:37.158Z,102035.94
2023-03-29T04:13:12.820Z,102032.19
2023-03-29T04:16:01.694Z,102032.16
2023-03-29T04:18:29.501Z,102038.19
2023-03-29T04:20:59.529Z,102049.63
2023-03-29T04:23:28.818Z,102037.53
2023-03-29T04:25:59.389Z,102028.88
2023-03-29T04:28:58.781Z,102037.69
2023-03-29T04:31:41.899Z,102033.28
2023-03-29T04:34:27.699Z,102032.47
2023-03-29T04:36:58.701Z,102039.53
2023-03-29T04:39:32.968Z,102054.31
2023-03-29T04:42:02.861Z,102058.06
2023-03-29T04:44:34.947Z,102059.00
2023-03-29T04:47:04.965Z,102059.00
2023-03-29T04:50:08.372Z,102053.09
2023-03-29T04:52:40.797Z,102063.78
2023-03-29T04:55:09.238Z,102059.50
2023-03-29T04:57:49.213Z,102057.69
2023-03-29T05:00:26.972Z,102064.47
2023-03-29T05:03:07.930Z,102067.84
2023-03-29T05:05:39.426Z,102059.72
2023-03-29T05:08:09.400Z,102059.56
2023-03-29T05:10:59.737Z,102064.09
2023-03-29T05:13:28.748Z,102075.13
2023-03-29T05:15:57.103Z,102088.41
2023-03-29T05:18:25.265Z,102084.69
2023-03-29T05:20:54.067Z,102088.09
2023-03-29T05:23:22.044Z,102085.16
2023-03-29T05:26:09.720Z,102081.88
2023-03-29T05:28:37.942Z,102088.63
2023-03-29T05:31:05.848Z,102094.19
2023-03-29T05:33:36.812Z,102089.63
2023-03-29T05:36:13.435Z,102090.31
2023-03-29T05:38:46.768Z,102091.59
2023-03-29T05:41:15.868Z,102094.22
2023-03-29T05:43:54.653Z,102094.13
2023-03-29T05:46:24.789Z,102094.94
2023-03-29T05:48:54.646Z,102098.78
2023-03-29T05:51:27.306Z,102101.81
2023-03-29T05:53:56.212Z,102097.56
2023-03-29T05:56:23.454Z,102096.28
2023-03-29T05:58:54.872Z,102105.94
2023-03-29T06:01:24.609Z,102105.31
2023-03-29T06:03:59.633Z,102115.09
2023-03-29T06:06:45.425Z,102111.78
2023-03-29T06:09:12.856Z,102127.13
2023-03-29T06:11:46.578Z,102120.56
2023-03-29T06:14:32.603Z,102121.03
2023-03-29T06:17:10.801Z,102108.00
2023-03-29T06:19:38.206Z,102109.59
2023-03-29T06:22:05.416Z,102124.13
2023-03-29T06:24:34.421Z,102117.94
2023-03-29T06:27:07.767Z,102118.78
2023-03-29T06:29:35.862Z,102116.00
2023-03-29T06:32:03.307Z,102125.75
2023-03-29T06:34:46.858Z,102128.75
2023-03-29T06:37:29.955Z,102127.66
2023-03-29T06:40:07.020Z,102120.16
2023-03-29T06:42:45.337Z,102114.16
2023-03-29T06:45:33.612Z,102118.09
2023-03-29T06:48:05.026Z,102116.00
2023-03-29T06:50:32.647Z,102123.63
2023-03-29T06:53:16.972Z,102128.09
2023-03-29T06:55:52.966Z,102129.19
2023-03-29T06:58:40.858Z,102128.47
2023-03-29T07:01:27.112Z,102128.03
2023-03-29T07:04:04.574Z,102129.44
2023-03-29T07:06:39.118Z,102134.63
2023-03-29T07:09:06.636Z,102132.13
2023-03-29T07:12:08.961Z,102141.31
2023-03-29T07:14:36.171Z,102146.47
2023-03-29T07:17:04.947Z,102149.03
2023-03-29T07:19:34.233Z,102147.16
2023-03-29T07:22:33.802Z,102148.59
2023-03-29T07:25:01.967Z,102141.88
2023-03-29T07:27:30.068Z,102144.78
2023-03-29T07:29:58.073Z,102140.69
2023-03-29T07:32:25.265Z,102137.78
2023-03-29T07:35:12.198Z,102134.66
2023-03-29T07:37:39.691Z,102128.97
2023-03-29T07:40:16.630Z,102135.91
2023-03-29T07:43:09.354Z,102142.75
2023-03-29T07:45:37.421Z,102134.13
2023-03-29T07:48:09.927Z,102141.09
2023-03-29T07:50:50.700Z,102135.00
2023-03-29T07:53:21.062Z,102145.38
2023-03-29T07:55:49.869Z,102144.53
2023-03-29T07:58:46.669Z,102142.28
2023-03-29T08:01:18.898Z,102149.88
2023-03-29T08:04:12.127Z,102145.13
2023-03-29T08:06:58.220Z,102147.25
2023-03-29T08:09:34.891Z,102147.34
2023-03-29T08:12:01.982Z,102143.91
2023-03-29T08:14:36.090Z,102141.69
2023-03-29T08:17:26.397Z,102152.28
2023-03-29T08:19:53.658Z,102153.06
2023-03-29T08:22:23.643Z,102156.00
2023-03-29T08:25:07.282Z,102160.94
2023-03-29T08:27:39.848Z,102156.16
2023-03-29T08:30:10.296Z,102155.13
2023-03-29T08:32:41.663Z,102157.78
2023-03-29T08:35:10.336Z,102163.03
2023-03-29T08:37:43.890Z,102155.25
2023-03-29T08:40:24.706Z,102151.06
2023-03-29T08:42:54.435Z,102147.03
2023-03-29T08:45:37.918Z,102141.88
2023-03-29T08:48:22.603Z,102137.66
2023-03-29T08:50:56.524Z,102128.31
2023-03-29T08:53:42.373Z,102127.03
2023-03-29T08:56:20.614Z,102123.81
2023-03-29T08:59:17.648Z,102125.41
2023-03-29T09:01:48.664Z,102114.09
2023-03-29T09:04:25.306Z,102114.00
2023-03-29T09:06:59.503Z,102110.94
2023-03-29T09:09:34.610Z,102117.41
2023-03-29T09:12:16.485Z,102116.69
2023-03-29T09:15:10.678Z,102120.13
2023-03-29T09:18:04.650Z,102128.53
2023-03-29T09:20:44.134Z,102131.78
2023-03-29T09:23:22.326Z,102126.63
2023-03-29T09:26:43.174Z,102117.16
2023-03-29T09:29:45.265Z,102127.16
2023-03-29T09:32:20.800Z,102130.50
2023-03-29T09:35:20.127Z,102119.94
2023-03-29T09:37:51.288Z,102114.78
2023-03-29T09:40:32.936Z,102110.75
2023-03-29T09:43:18.370Z,102121.72
2023-03-29T09:45:53.437Z,102119.59
2023-03-29T09:48:21.840Z,102104.09
2023-03-29T09:50:55.857Z,102103.94
2023-03-29T09:53:24.930Z,102108.44
2023-03-29T09:56:08.745Z,102108.38
2023-03-29T09:58:46.993Z,102113.81
2023-03-29T10:01:20.235Z,102110.31
2023-03-29T10:03:53.194Z,102106.88
2023-03-29T10:06:24.322Z,102106.75
2023-03-29T10:09:01.304Z,102104.44
2023-03-29T10:11:47.630Z,102104.69
2023-03-29T10:14:41.252Z,102103.69
2023-03-29T10:17:16.599Z,102108.31
2023-03-29T10:19:58.398Z,102099.47
2023-03-29T10:22:41.132Z,102100.84
2023-03-29T10:25:17.256Z,102097.22
2023-03-29T10:27:46.896Z,102093.13
2023-03-29T10:30:23.906Z,102083.38
2023-03-29T10:33:00.012Z,102088.25
2023-03-29T10:35:33.333Z,102083.75
2023-03-29T10:38:04.700Z,102081.94
2023-03-29T10:40:34.120Z,102081.31
2023-03-29T10:43:12.491Z,102076.59
2023-03-29T10:45:40.951Z,102069.97
2023-03-29T10:48:16.336Z,102076.81
2023-03-29T10:50:49.238Z,102079.03
2023-03-29T10:53:24.799Z,102068.72
2023-03-29T10:56:23.005Z,102072.84
2023-03-29T10:59:12.079Z,102071.59
2023-03-29T11:01:59.006Z,102068.72
2023-03-29T11:04:28.966Z,102078.00
2023-03-29T11:07:19.652Z,102068.44
2023-03-29T11:09:49.819Z,102070.56
2023-03-29T11:12:40.306Z,102060.16
2023-03-29T11:15:17.951Z,102054.16
2023-03-29T11:17:50.827Z,102054.34
2023-03-29T11:20:38.689Z,102049.25
2023-03-29T11:23:34.357Z,102053.47
2023-03-29T11:26:15.595Z,102053.84
2023-03-29T11:28:56.367Z,102042.22
2023-03-29T11:31:28.762Z,102037.22
2023-03-29T11:34:14.381Z,102036.84
2023-03-29T11:36:59.955Z,102029.00
2023-03-29T11:39:38.618Z,102031.59
2023-03-29T11:42:20.203Z,102030.28
2023-03-29T11:44:50.778Z,102027.28
2023-03-29T11:47:22.591Z,102034.50
2023-03-29T11:49:57.381Z,102032.31
2023-03-29T11:52:41.089Z,102021.88
2023-03-29T11:55:18.046Z,102018.66
2023-03-29T11:57:56.533Z,102014.63
2023-03-29T12:00:38.803Z,102022.22
2023-03-29T12:03:24.658Z,102007.78
2023-03-29T12:05:58.571Z,102001.97
2023-03-29T12:08:55.149Z,102003.22
2023-03-29T12:11:22.825Z,102004.50
2023-03-29T12:13:56.562Z,101996.31
2023-03-29T12:16:34.322Z,102000.22
2023-03-29T12:19:07.350Z,102000.97
2023-03-29T12:21:36.569Z,101994.47
2023-03-29T12:24:06.332Z,101985.78
2023-03-29T12:26:55.346Z,101985.22
2023-03-29T12:29:39.326Z,101992.28
2023-03-29T12:32:21.491Z,101985.19
2023-03-29T12:35:16.720Z,101976.47
2023-03-29T12:38:32.856Z,101974.47
2023-03-29T12:41:35.555Z,101974.19
2023-03-29T12:44:23.931Z,101966.75
2023-03-29T12:47:00.481Z,101959.31
2023-03-29T12:49:32.559Z,101961.50
2023-03-29T12:52:02.387Z,101949.72
2023-03-29T12:54:33.270Z,101951.50
2023-03-29T12:57:02.703Z,101949.44
2023-03-29T12:59:38.844Z,101946.00
2023-03-29T13:02:15.253Z,101947.25
2023-03-29T13:04:42.951Z,101948.28
2023-03-29T13:07:15.024Z,101949.38
2023-03-29T13:10:03.520Z,101946.25
2023-03-29T13:12:43.331Z,101940.50
2023-03-29T13:15:19.176Z,101942.69
2023-03-29T13:18:04.855Z,101944.06
2023-03-29T13:20:45.929Z,101937.22
2023-03-29T13:23:43.350Z,101951.41
2023-03-29T13:26:34.476Z,101933.56
2023-03-29T13:29:19.783Z,101930.13
2023-03-29T13:32:04.463Z,101930.13
2023-03-29T13:34:56.340Z,101921.47
2023-03-29T13:37:40.837Z,101924.38
2023-03-29T13:40:30.312Z,101926.53
2023-03-29T13:43:08.953Z,101932.53
2023-03-29T13:45:38.639Z,101924.06
2023-03-29T13:48:23.703Z,101916.78
2023-03-29T13:51:01.616Z,101911.94
2023-03-29T13:53:38.228Z,101908.84
2023-03-29T13:56:15.413Z,101905.75
2023-03-29T13:58:49.692Z,101898.50
2023-03-29T14:01:39.179Z,101896.06
2023-03-29T14:04:09.826Z,101896.41
2023-03-29T14:06:38.557Z,101896.72
2023-03-29T14:09:08.642Z,101895.75
2023-03-29T14:11:36.504Z,101886.78
2023-03-29T14:14:07.051Z,101883.75
2023-03-29T14:16:40.026Z,101885.31
2023-03-29T14:19:24.659Z,101884.38
2023-03-29T14:21:53.152Z,101881.94
2023-03-29T14:24:27.229Z,101885.25
2023-03-29T14:26:54.794Z,101881.00
2023-03-29T14:29:24.213Z,101875.66
2023-03-29T14:31:52.833Z,101861.88
2023-03-29T14:34:20.236Z,101863.94
2023-03-29T14:36:49.336Z,101867.63
2023-03-29T14:39:20.028Z,101858.22
2023-03-29T14:41:52.919Z,101855.84
2023-03-29T14:44:22.525Z,101854.22
2023-03-29T14:46:49.786Z,101853.00
2023-03-29T14:49:19.418Z,101848.63
2023-03-29T14:51:47.805Z,101842.28
2023-03-29T14:54:29.733Z,101843.81
2023-03-29T14:56:57.067Z,101842.81
2023-03-29T14:59:37.488Z,101854.97
2023-03-29T15:02:21.839Z,101857.00
2023-03-29T15:04:56.466Z,101843.97
2023-03-29T15:07:26.948Z,101849.31
2023-03-29T15:09:56.235Z,101855.31
2023-03-29T15:12:23.598Z,101852.50
2023-03-29T15:14:52.424Z,101856.63
2023-03-29T15:17:46.997Z,101855.03
2023-03-29T15:20:29.814Z,101846.50
2023-03-29T15:23:10.289Z,101855.72
2023-03-29T15:25:46.128Z,101851.31
2023-03-29T15:28:26.404Z,101858.50
2023-03-29T15:31:07.179Z,101849.25
2023-03-29T15:33:38.606Z,101844.06
2023-03-29T15:36:08.298Z,101847.28
2023-03-29T15:38:43.992Z,101847.25
2023-03-29T15:41:13.309Z,101844.53
2023-03-29T15:43:41.385Z,101838.59
2023-03-29T15:46:12.005Z,101849.25
2023-03-29T15:48:39.711Z,101848.72
2023-03-29T15:51:07.497Z,101846.59
2023-03-29T15:53:35.833Z,101857.44
2023-03-29T15:56:07.271Z,101850.88
2023-03-29T15:58:35.783Z,101850.31
2023-03-29T16:01:23.386Z,101854.78
2023-03-29T16:03:50.905Z,101861.09
2023-03-29T16:06:18.373Z,101867.06
2023-03-29T16:08:46.009Z,101859.69
2023-03-29T16:11:13.267Z,101866.47
2023-03-29T16:13:40.460Z,101860.44
2023-03-29T16:16:10.740Z,101872.13
2023-03-29T16:18:38.272Z,101869.25
2023-03-29T16:21:06.299Z,101857.81
2023-03-29T16:23:34.347Z,101857.22
2023-03-29T16:26:01.665Z,101858.19
2023-03-29T16:28:28.823Z,101852.84
2023-03-29T16:30:56.145Z,101839.88
2023-03-29T16:33:23.347Z,101842.41
2023-03-29T16:35:50.600Z,101845.00
2023-03-29T16:38:17.721Z,101848.78
2023-03-29T16:40:45.111Z,101838.28
2023-03-29T16:43:16.103Z,101838.97
2023-03-29T16:45:43.320Z,101833.66
2023-03-29T16:48:18.037Z,101831.13
2023-03-29T16:50:49.375Z,101845.75
2023-03-29T16:53:18.481Z,101835.31
2023-03-29T16:55:46.758Z,101838.88
2023-03-29T16:58:15.229Z,101844.50
2023-03-29T17:00:44.438Z,101845.13
2023-03-29T17:03:13.272Z,101847.47
2023-03-29T17:05:41.691Z,101847.13
2023-03-29T17:08:10.016Z,101845.56
2023-03-29T17:10:40.794Z,101849.78
2023-03-29T17:13:08.650Z,101845.66
2023-03-29T17:15:39.354Z,101850.50
2023-03-29T17:18:07.468Z,101847.50
2023-03-29T17:20:34.643Z,101848.41
2023-03-29T17:23:01.722Z,101854.91
2023-03-29T17:25:28.819Z,101855.75
2023-03-29T17:27:56.015Z,101856.50
2023-03-29T17:30:23.146Z,101851.44
2023-03-29T17:32:52.144Z,101847.03
2023-03-29T17:35:19.552Z,101855.06
2023-03-29T17:37:46.688Z,101847.91
2023-03-29T17:40:14.158Z,101858.31
2023-03-29T17:42:42.291Z,101865.16
2023-03-29T17:45:10.903Z,101869.97
2023-03-29T17:47:38.750Z,101867.22
2023-03-29T17:50:07.260Z,101872.09
2023-03-29T17:52:34.689Z,101871.41
2023-03-29T17:55:01.972Z,101872.81
2023-03-29T17:57:29.130Z,101876.66
2023-03-29T17:59:56.299Z,101876.06
2023-03-29T18:02:24.768Z,101875.59
2023-03-29T18:04:52.033Z,101875.78
2023-03-29T18:07:19.107Z,101888.59
2023-03-29T18:09:46.226Z,101888.88
2023-03-29T18:12:13.304Z,101885.84
2023-03-29T18:14:40.632Z,101887.50
2023-03-29T18:17:07.823Z,101885.94
2023-03-29T18:19:35.096Z,101889.78
2023-03-29T18:22:02.163Z,101898.63
2023-03-29T18:24:29.466Z,101892.34
2023-03-29T18:26:56.605Z,101903.34
2023-03-29T18:29:24.025Z,101912.25
2023-03-29T18:31:51.228Z,101903.75
2023-03-29T18:34:18.317Z,101908.25
2023-03-29T18:36:45.471Z,101919.78
2023-03-29T18:39:13.567Z,101917.31
2023-03-29T18:41:40.648Z,101914.41
2023-03-29T18:44:07.910Z,101921.53
2023-03-29T18:46:35.333Z,101923.63
2023-03-29T18:49:03.864Z,101932.34
2023-03-29T18:51:30.994Z,101941.91
2023-03-29T18:53:58.205Z,101935.25
2023-03-29T18:56:25.662Z,101943.81
2023-03-29T18:58:53.717Z,101940.28
2023-03-29T19:01:21.223Z,101944.53
2023-03-29T19:03:48.698Z,101943.03
2023-03-29T19:06:16.604Z,101942.47
2023-03-29T19:08:43.754Z,101945.81
2023-03-29T19:11:14.201Z,101941.09
2023-03-29T19:13:41.470Z,101948.84
2023-03-29T19:16:09.176Z,101946.88
2023-03-29T19:18:36.639Z,101948.53
2023-03-29T19:21:04.049Z,101950.69
2023-03-29T19:23:31.378Z,101949.25
2023-03-29T19:26:01.242Z,101945.38
2023-03-29T19:28:29.162Z,101959.84
2023-03-29T19:30:58.477Z,101957.53
2023-03-29T19:33:25.642Z,101953.66
2023-03-29T19:35:52.863Z,101957.69
2023-03-29T19:38:21.307Z,101959.50
2023-03-29T19:40:50.440Z,101959.50
2023-03-29T19:43:18.336Z,101959.56
2023-03-29T19:45:46.921Z,101967.69
2023-03-29T19:48:21.763Z,101966.25
2023-03-29T19:50:50.221Z,101972.97
2023-03-29T19:53:17.455Z,101970.69
2023-03-29T19:55:45.310Z,101967.19
2023-03-29T19:58:13.071Z,101969.91
2023-03-29T20:00:41.535Z,101966.19
2023-03-29T20:03:13.862Z,101974.16
2023-03-29T20:05:41.309Z,101978.63
2023-03-29T20:08:08.834Z,101971.59
2023-03-29T20:10:36.349Z,101968.84
2023-03-29T20:13:06.074Z,101970.50
2023-03-29T20:15:35.144Z,101971.81
2023-03-29T20:18:02.286Z,101972.84
2023-03-29T20:20:29.929Z,101968.63
2023-03-29T20:23:04.558Z,101975.66
2023-03-29T20:25:34.357Z,101978.44
2023-03-29T20:28:01.477Z,101979.59
2023-03-29T20:30:28.593Z,101979.91
2023-03-29T20:32:56.047Z,101976.84
2023-03-29T20:35:23.258Z,101977.25
2023-03-29T20:37:50.341Z,101972.09
2023-03-29T20:40:17.587Z,101976.47
2023-03-29T20:42:46.206Z,101974.31
2023-03-29T20:45:18.676Z,101976.31
2023-03-29T20:47:57.447Z,101976.44
2023-03-29T20:50:26.392Z,101979.78
2023-03-29T20:52:56.589Z,101972.34
2023-03-29T20:55:24.520Z,101981.13
2023-03-29T20:57:57.813Z,101980.06
2023-03-29T21:00:31.624Z,101983.59
2023-03-29T21:02:59.046Z,101990.63
2023-03-29T21:05:27.845Z,101999.53
2023-03-29T21:07:55.175Z,101997.00
2023-03-29T21:10:23.597Z,101999.47
2023-03-29T21:12:52.182Z,102000.31
2023-03-29T21:15:19.739Z,102003.16
2023-03-29T21:17:47.527Z,102007.94
2023-03-29T21:20:15.508Z,102009.47
2023-03-29T21:22:43.117Z,102014.53
2023-03-29T21:25:12.376Z,102009.00
2023-03-29T21:27:39.470Z,102010.75
2023-03-29T21:30:07.976Z,102025.78
2023-03-29T21:32:36.407Z,102027.28
2023-03-29T21:35:03.750Z,102031.16
2023-03-29T21:37:31.062Z,102023.72
2023-03-29T21:39:58.159Z,102030.09
2023-03-29T21:42:25.507Z,102019.50
2023-03-29T21:44:52.644Z,102021.56
2023-03-29T21:47:19.742Z,102018.09
2023-03-29T21:49:46.862Z,102015.66
2023-03-29T21:52:14.024Z,102010.34
2023-03-29T21:54:41.162Z,101999.09
2023-03-29T21:57:08.663Z,101998.13
2023-03-29T21:59:35.847Z,101997.47
2023-03-29T22:02:02.993Z,101999.78
2023-03-29T22:04:37.228Z,101999.03
2023-03-29T22:07:06.233Z,102008.78
2023-03-29T22:09:35.224Z,102002.66
2023-03-29T22:12:04.772Z,102002.38
2023-03-29T22:14:35.120Z,101995.31
2023-03-29T22:17:07.838Z,102011.41
2023-03-29T22:19:39.557Z,102013.16
2023-03-29T22:22:13.211Z,102010.19
2023-03-29T22:24:41.507Z,102004.91
2023-03-29T22:27:08.616Z,102003.63
2023-03-29T22:29:35.823Z,102003.75
2023-03-29T22:32:03.101Z,102006.97
2023-03-29T22:34:30.502Z,102011.66
2023-03-29T22:36:57.607Z,102020.78
2023-03-29T22:39:24.799Z,102018.81
2023-03-29T22:41:51.891Z,102014.38
2023-03-29T22:44:19.039Z,102017.66
2023-03-29T22:46:46.670Z,102014.09
2023-03-29T22:49:13.745Z,102013.16
2023-03-29T22:51:40.816Z,102011.09
2023-03-29T22:54:08.001Z,102007.34
2023-03-29T22:56:35.235Z,102007.66
2023-03-29T22:59:02.314Z,102005.63
2023-03-29T23:01:29.442Z,102004.28
2023-03-29T23:03:56.642Z,102002.72
2023-03-29T23:06:23.885Z,102010.97
2023-03-29T23:08:50.962Z,102011.78
2023-03-29T23:11:18.028Z,102015.41
2023-03-29T23:13:48.601Z,102011.50
2023-03-29T23:16:16.202Z,102002.81
2023-03-29T23:18:43.338Z,101999.34
2023-03-29T23:21:10.526Z,102009.03
2023-03-29T23:23:38.295Z,102012.03
2023-03-29T23:26:08.444Z,102015.81
2023-03-29T23:28:35.645Z,102015.94
2023-03-29T23:31:09.304Z,102002.50
2023-03-29T23:33:40.411Z,102011.69
2023-03-29T23:36:10.189Z,102006.63
2023-03-29T23:38:38.715Z,101991.56
2023-03-29T23:41:08.554Z,101996.69
2023-03-29T23:43:40.437Z,101998.28
2023-03-29T23:46:15.996Z,101999.19
2023-03-29T23:48:48.869Z,102012.69
2023-03-29T23:51:18.853Z,102010.06
2023-03-29T23:53:47.359Z,102002.50
2023-03-29T23:56:14.702Z,102002.56
2023-03-29T23:58:41.800Z,102004.31
